createdAt,value
2019-03-28T00:00:35.430Z,5.83
2019-03-28T00:03:05.778Z,6.33
2019-03-28T00:05:36.090Z,4.53
2019-03-28T00:08:07.006Z,5.90
2019-03-28T00:10:37.351Z,4.83
2019-03-28T00:13:07.838Z,4.80
2019-03-28T00:15:38.381Z,7.83
2019-03-28T00:18:08.740Z,5.30
2019-03-28T00:20:39.072Z,4.83
2019-03-28T00:23:22.281Z,5.10
2019-03-28T00:25:52.751Z,5.03
2019-03-28T00:28:23.147Z,5.73
2019-03-28T00:30:53.516Z,5.63
2019-03-28T00:33:23.951Z,5.27
2019-03-28T00:35:54.339Z,4.83
2019-03-28T00:38:25.140Z,5.33
2019-03-28T00:40:55.636Z,5.37
2019-03-28T00:43:26.026Z,5.47
2019-03-28T00:45:56.427Z,5.60
2019-03-28T00:48:27.167Z,5.10
2019-03-28T00:50:57.677Z,5.33
2019-03-28T00:53:28.091Z,7.47
2019-03-28T00:55:58.454Z,6.07
2019-03-28T00:58:28.820Z,6.50
2019-03-28T01:00:59.083Z,6.50
2019-03-28T01:03:29.428Z,6.53
2019-03-28T01:05:59.912Z,6.47
2019-03-28T01:08:30.361Z,5.80
2019-03-28T01:11:00.846Z,9.40
2019-03-28T01:13:31.283Z,6.37
2019-03-28T01:16:01.650Z,7.90
2019-03-28T01:18:32.002Z,10.20
2019-03-28T01:21:02.423Z,12.00
2019-03-28T01:23:32.989Z,7.87
2019-03-28T01:26:04.297Z,8.80
2019-03-28T01:28:34.682Z,6.20
2019-03-28T01:31:05.052Z,6.83
2019-03-28T01:33:35.564Z,8.53
2019-03-28T01:36:06.019Z,6.43
2019-03-28T01:38:36.424Z,8.10
2019-03-28T01:41:06.835Z,8.73
2019-03-28T01:43:37.289Z,11.27
2019-03-28T01:46:07.682Z,7.00
2019-03-28T01:48:38.193Z,8.17
2019-03-28T01:51:08.578Z,10.03
2019-03-28T01:53:39.061Z,11.43
2019-03-28T01:56:09.771Z,9.20
2019-03-28T01:58:40.124Z,7.67
2019-03-28T02:01:10.650Z,8.80
2019-03-28T02:03:41.039Z,10.03
2019-03-28T02:06:11.931Z,8.10
2019-03-28T02:08:42.357Z,8.00
2019-03-28T02:11:12.755Z,9.73
2019-03-28T02:13:43.036Z,10.80
2019-03-28T02:16:13.434Z,11.60
2019-03-28T02:18:43.759Z,8.67
2019-03-28T02:21:14.229Z,7.57
2019-03-28T02:23:44.634Z,8.63
2019-03-28T02:26:14.992Z,7.03
2019-03-28T02:28:45.577Z,10.00
2019-03-28T02:31:16.721Z,9.40
2019-03-28T02:33:47.621Z,8.67
2019-03-28T02:36:18.098Z,8.03
2019-03-28T02:38:48.603Z,9.93
2019-03-28T02:41:18.991Z,7.77
2019-03-28T02:43:49.474Z,8.63
2019-03-28T02:46:19.911Z,7.23
2019-03-28T02:48:51.413Z,7.77
2019-03-28T02:51:21.956Z,8.53
2019-03-28T02:53:52.432Z,7.77
2019-03-28T02:56:22.907Z,12.27
2019-03-28T02:58:53.272Z,7.50
2019-03-28T03:01:23.711Z,12.57
2019-03-28T03:03:54.204Z,7.90
2019-03-28T03:06:24.725Z,8.43
2019-03-28T03:08:55.187Z,7.83
2019-03-28T03:11:25.558Z,8.97
2019-03-28T03:13:56.015Z,11.07
2019-03-28T03:16:26.569Z,8.23
2019-03-28T03:18:56.932Z,7.77
2019-03-28T03:21:27.213Z,8.07
2019-03-28T03:23:57.663Z,7.67
2019-03-28T03:26:28.045Z,7.03
2019-03-28T03:28:58.419Z,8.30
2019-03-28T03:31:28.724Z,10.27
2019-03-28T03:33:59.102Z,7.90
2019-03-28T03:36:29.498Z,7.87
2019-03-28T03:38:59.914Z,8.10
2019-03-28T03:41:30.276Z,7.27
2019-03-28T03:44:02.603Z,7.03
2019-03-28T03:46:32.960Z,7.27
2019-03-28T03:49:03.391Z,11.13
2019-03-28T03:51:34.135Z,7.87
2019-03-28T03:54:06.659Z,12.37
2019-03-28T03:56:37.047Z,9.07
2019-03-28T03:59:07.504Z,7.63
2019-03-28T04:01:37.915Z,7.93
2019-03-28T04:04:08.334Z,10.37
2019-03-28T04:06:38.742Z,9.70
2019-03-28T04:09:10.009Z,8.00
2019-03-28T04:11:40.321Z,8.73
2019-03-28T04:14:10.736Z,8.23
2019-03-28T04:16:41.083Z,9.57
2019-03-28T04:19:11.405Z,8.83
2019-03-28T04:21:41.781Z,8.13
2019-03-28T04:24:12.131Z,8.03
2019-03-28T04:26:42.913Z,7.73
2019-03-28T04:29:13.803Z,7.37
2019-03-28T04:31:44.153Z,7.97
2019-03-28T04:34:14.528Z,7.80
2019-03-28T04:36:44.912Z,8.40
2019-03-28T04:39:15.389Z,7.13
2019-03-28T04:41:46.430Z,7.90
2019-03-28T04:44:17.610Z,6.93
2019-03-28T04:46:48.191Z,8.37
2019-03-28T04:49:18.659Z,7.47
2019-03-28T04:51:49.206Z,7.73
2019-03-28T04:54:19.573Z,7.20
2019-03-28T04:56:50.013Z,8.30
2019-03-28T04:59:20.440Z,8.05
2019-03-28T05:02:02.566Z,6.97
2019-03-28T05:04:23.751Z,8.27
2019-03-28T05:06:54.160Z,8.43
2019-03-28T05:09:25.301Z,7.90
2019-03-28T05:11:55.713Z,8.37
2019-03-28T05:14:26.121Z,8.00
2019-03-28T05:16:56.627Z,8.60
2019-03-28T05:19:27.098Z,8.13
2019-03-28T05:21:57.493Z,9.03
2019-03-28T05:24:27.806Z,8.37
2019-03-28T05:26:58.174Z,8.47
2019-03-28T05:29:28.566Z,8.23
2019-03-28T05:31:58.927Z,9.20
2019-03-28T05:34:29.254Z,7.97
2019-03-28T05:36:59.651Z,9.43
2019-03-28T05:39:30.002Z,8.07
2019-03-28T05:42:00.414Z,8.50
2019-03-28T05:44:30.860Z,8.27
2019-03-28T05:47:01.295Z,8.00
2019-03-28T05:49:31.717Z,8.57
2019-03-28T05:52:02.149Z,12.60
2019-03-28T05:54:32.605Z,8.43
2019-03-28T05:57:03.169Z,9.07
2019-03-28T05:59:34.690Z,7.50
2019-03-28T06:02:05.176Z,8.93
2019-03-28T06:04:35.554Z,9.00
2019-03-28T06:07:08.676Z,8.37
2019-03-28T06:09:40.224Z,8.47
2019-03-28T06:12:10.068Z,10.00
2019-03-28T06:14:40.486Z,10.60
2019-03-28T06:17:11.027Z,8.70
2019-03-28T06:19:41.594Z,12.70
2019-03-28T06:22:11.985Z,14.10
2019-03-28T06:24:42.388Z,15.10
2019-03-28T06:27:12.734Z,9.73
2019-03-28T06:29:43.118Z,8.60
2019-03-28T06:32:13.629Z,8.33
2019-03-28T06:34:43.969Z,9.03
2019-03-28T06:37:14.277Z,14.10
2019-03-28T06:39:44.609Z,17.40
2019-03-28T06:42:15.044Z,15.47
2019-03-28T06:44:45.484Z,10.53
2019-03-28T06:47:15.799Z,8.63
2019-03-28T06:49:47.345Z,10.37
2019-03-28T06:52:17.737Z,9.13
2019-03-28T06:54:48.636Z,8.33
2019-03-28T06:57:19.085Z,8.53
2019-03-28T06:59:49.437Z,10.23
2019-03-28T07:02:21.869Z,16.00
2019-03-28T07:04:51.826Z,13.00
2019-03-28T07:07:22.132Z,12.07
2019-03-28T07:09:52.546Z,14.63
2019-03-28T07:12:22.956Z,9.03
2019-03-28T07:14:54.285Z,8.40
2019-03-28T07:17:24.722Z,14.47
2019-03-28T07:20:09.295Z,11.50
2019-03-28T07:22:39.935Z,9.33
2019-03-28T07:25:10.351Z,13.87
2019-03-28T07:27:40.755Z,14.57
2019-03-28T07:30:12.114Z,16.27
2019-03-28T07:32:43.602Z,9.73
2019-03-28T07:35:14.355Z,14.60
2019-03-28T07:37:44.821Z,13.87
2019-03-28T07:40:15.191Z,11.07
2019-03-28T07:42:46.463Z,14.43
2019-03-28T07:45:17.142Z,14.70
2019-03-28T07:47:47.537Z,9.03
2019-03-28T07:50:18.012Z,9.10
2019-03-28T07:52:48.349Z,9.00
2019-03-28T07:55:18.665Z,16.77
2019-03-28T07:57:49.022Z,15.40
2019-03-28T08:00:19.459Z,18.00
2019-03-28T08:02:49.840Z,13.53
2019-03-28T08:05:20.263Z,14.10
2019-03-28T08:07:50.556Z,16.13
2019-03-28T08:10:22.082Z,12.50
2019-03-28T08:12:52.473Z,16.70
2019-03-28T08:15:22.945Z,14.17
2019-03-28T08:17:53.314Z,11.53
2019-03-28T08:20:23.800Z,13.40
2019-03-28T08:22:54.115Z,14.27
2019-03-28T08:25:24.492Z,16.40
2019-03-28T08:27:57.567Z,15.00
2019-03-28T08:30:36.830Z,13.13
2019-03-28T08:33:07.722Z,12.40
2019-03-28T08:35:38.092Z,17.63
2019-03-28T08:38:10.150Z,16.00
2019-03-28T08:40:41.216Z,13.20
2019-03-28T08:43:12.807Z,17.00
2019-03-28T08:45:43.282Z,14.23
2019-03-28T08:48:13.896Z,11.33
2019-03-28T08:50:44.276Z,18.90
2019-03-28T08:53:15.827Z,16.50
2019-03-28T08:55:46.289Z,17.20
2019-03-28T08:58:16.901Z,16.30
2019-03-28T09:00:52.288Z,16.07
2019-03-28T09:03:19.291Z,17.47
2019-03-28T09:05:49.599Z,17.60
2019-03-28T09:08:19.998Z,16.17
2019-03-28T09:10:50.370Z,17.53
2019-03-28T09:13:20.708Z,15.60
2019-03-28T09:15:51.111Z,15.63
2019-03-28T09:18:21.449Z,16.87
2019-03-28T09:20:51.862Z,15.77
2019-03-28T09:23:22.355Z,15.33
2019-03-28T09:25:52.742Z,14.90
2019-03-28T09:28:23.141Z,14.37
2019-03-28T09:30:53.589Z,16.53
2019-03-28T09:33:24.105Z,15.33
2019-03-28T09:35:55.591Z,14.83
2019-03-28T09:38:25.973Z,14.47
2019-03-28T09:40:56.774Z,13.93
2019-03-28T09:43:27.139Z,13.60
2019-03-28T09:46:00.203Z,13.37
2019-03-28T09:48:29.591Z,13.63
2019-03-28T09:51:00.414Z,14.20
2019-03-28T09:53:31.088Z,12.83
2019-03-28T09:56:01.438Z,12.93
2019-03-28T09:58:31.992Z,12.00
2019-03-28T10:01:03.442Z,13.17
2019-03-28T10:03:33.860Z,12.13
2019-03-28T10:06:04.636Z,12.68
2019-03-28T10:08:35.073Z,11.87
2019-03-28T10:11:05.564Z,11.23
2019-03-28T10:13:35.951Z,12.90
2019-03-28T10:16:06.253Z,11.67
2019-03-28T10:18:36.713Z,11.73
2019-03-28T10:21:07.098Z,11.93
2019-03-28T10:23:40.039Z,11.73
2019-03-28T10:26:10.428Z,10.57
2019-03-28T10:28:40.792Z,10.30
2019-03-28T10:31:16.614Z,10.37
2019-03-28T10:33:43.219Z,11.03
2019-03-28T10:36:13.976Z,11.33
2019-03-28T10:38:44.291Z,11.03
2019-03-28T10:41:14.673Z,10.47
2019-03-28T10:43:45.474Z,10.67
2019-03-28T10:46:17.530Z,10.23
2019-03-28T10:48:47.899Z,10.57
2019-03-28T10:51:18.281Z,10.23
2019-03-28T10:53:48.631Z,8.93
2019-03-28T10:56:23.352Z,9.30
2019-03-28T10:58:51.149Z,9.53
2019-03-28T11:01:36.167Z,8.63
2019-03-28T11:03:53.525Z,8.83
2019-03-28T11:06:23.807Z,9.47
2019-03-28T11:08:54.254Z,8.43
2019-03-28T11:11:24.732Z,8.97
2019-03-28T11:13:55.144Z,9.33
2019-03-28T11:16:25.609Z,7.80
2019-03-28T11:18:56.011Z,7.90
2019-03-28T11:21:27.455Z,8.10
2019-03-28T11:23:58.596Z,7.50
2019-03-28T11:26:29.170Z,7.27
2019-03-28T11:29:01.029Z,7.47
2019-03-28T11:31:45.299Z,6.70
2019-03-28T11:34:04.496Z,6.93
2019-03-28T11:36:34.866Z,8.17
2019-03-28T11:39:06.982Z,7.17
2019-03-28T11:41:37.445Z,6.67
2019-03-28T11:44:07.758Z,6.67
2019-03-28T11:46:38.059Z,6.27
2019-03-28T11:49:08.387Z,6.23
2019-03-28T11:51:38.689Z,5.87
2019-03-28T11:54:09.065Z,6.87
2019-03-28T11:56:39.480Z,5.95
2019-03-28T11:59:09.869Z,5.30
2019-03-28T12:01:40.296Z,6.20
2019-03-28T12:04:10.745Z,5.73
2019-03-28T12:06:41.034Z,5.13
2019-03-28T12:09:12.228Z,4.83
2019-03-28T12:11:42.701Z,5.87
2019-03-28T12:14:13.077Z,4.77
2019-03-28T12:16:43.371Z,4.80
2019-03-28T12:19:13.813Z,4.37
2019-03-28T12:21:44.748Z,4.73
2019-03-28T12:24:15.572Z,4.43
2019-03-28T12:26:45.975Z,4.40
2019-03-28T12:29:16.664Z,4.00
2019-03-28T12:31:47.037Z,4.17
2019-03-28T12:34:17.405Z,4.50
2019-03-28T12:36:47.860Z,4.63
2019-03-28T12:39:18.524Z,4.50
2019-03-28T12:41:48.814Z,4.40
2019-03-28T12:44:19.088Z,4.07
2019-03-28T12:46:51.065Z,3.43
2019-03-28T12:49:21.477Z,3.60
2019-03-28T12:51:52.622Z,4.00
2019-03-28T12:54:23.011Z,3.30
2019-03-28T12:56:53.444Z,3.13
2019-03-28T12:59:23.795Z,3.30
2019-03-28T13:01:55.286Z,3.10
2019-03-28T13:04:25.712Z,3.30
2019-03-28T13:06:56.221Z,3.00
2019-03-28T13:09:28.153Z,2.77
2019-03-28T13:11:58.696Z,2.93
2019-03-28T13:14:31.347Z,2.97
2019-03-28T13:17:01.045Z,2.83
2019-03-28T13:19:31.427Z,2.80
2019-03-28T13:22:02.418Z,2.50
2019-03-28T13:24:32.901Z,2.80
2019-03-28T13:27:04.016Z,2.80
2019-03-28T13:29:34.406Z,2.63
2019-03-28T13:32:04.956Z,3.00
2019-03-28T13:34:35.298Z,2.60
2019-03-28T13:37:05.553Z,2.23
2019-03-28T13:39:35.899Z,2.13
2019-03-28T13:42:06.157Z,2.40
2019-03-28T13:44:36.473Z,2.20
2019-03-28T13:47:06.854Z,1.97
2019-03-28T13:49:37.129Z,2.50
2019-03-28T13:52:07.871Z,1.93
2019-03-28T13:54:38.156Z,1.93
2019-03-28T13:57:08.789Z,2.40
2019-03-28T13:59:39.117Z,2.10
2019-03-28T14:02:09.354Z,2.40
2019-03-28T14:04:39.640Z,2.50
2019-03-28T14:07:09.864Z,2.30
2019-03-28T14:09:40.544Z,2.40
2019-03-28T14:12:10.859Z,2.70
2019-03-28T14:14:41.132Z,2.47
2019-03-28T14:17:11.365Z,2.37
2019-03-28T14:19:41.652Z,2.57
2019-03-28T14:22:11.979Z,2.50
2019-03-28T14:24:42.399Z,2.13
2019-03-28T14:27:12.665Z,2.30
2019-03-28T14:29:43.034Z,2.50
2019-03-28T14:32:13.299Z,2.17
2019-03-28T14:34:44.125Z,2.37
2019-03-28T14:37:16.955Z,2.40
2019-03-28T14:39:49.071Z,2.83
2019-03-28T14:42:19.941Z,2.27
2019-03-28T14:44:50.539Z,3.67
2019-03-28T14:47:21.764Z,3.03
2019-03-28T14:49:53.696Z,2.83
2019-03-28T14:52:25.005Z,2.57
2019-03-28T14:54:55.324Z,2.77
2019-03-28T14:57:26.492Z,3.00
2019-03-28T14:59:57.552Z,3.70
2019-03-28T15:02:27.791Z,3.93
2019-03-28T15:04:58.127Z,3.73
2019-03-28T15:07:28.419Z,2.37
2019-03-28T15:09:58.836Z,2.80
2019-03-28T15:12:29.063Z,2.90
2019-03-28T15:14:59.372Z,2.53
2019-03-28T15:17:29.790Z,2.30
2019-03-28T15:20:02.760Z,2.30
2019-03-28T15:22:33.089Z,2.83
2019-03-28T15:25:03.484Z,2.70
2019-03-28T15:27:33.780Z,3.60
2019-03-28T15:30:05.318Z,2.97
2019-03-28T15:32:36.626Z,3.03
2019-03-28T15:35:06.974Z,2.40
2019-03-28T15:37:37.349Z,2.77
2019-03-28T15:40:09.349Z,2.70
2019-03-28T15:42:39.658Z,3.20
2019-03-28T15:45:10.003Z,2.77
2019-03-28T15:47:40.343Z,3.03
2019-03-28T15:50:10.616Z,2.37
2019-03-28T15:52:41.002Z,2.47
2019-03-28T15:55:14.528Z,2.57
2019-03-28T15:57:43.587Z,2.50
2019-03-28T16:00:13.904Z,2.63
2019-03-28T16:02:44.154Z,3.73
2019-03-28T16:05:14.547Z,3.10
2019-03-28T16:07:44.984Z,2.50
2019-03-28T16:10:15.593Z,2.80
2019-03-28T16:12:45.912Z,2.87
2019-03-28T16:15:16.281Z,3.10
2019-03-28T16:17:47.535Z,3.07
2019-03-28T16:20:18.179Z,2.93
2019-03-28T16:22:48.448Z,2.90
2019-03-28T16:25:18.709Z,2.83
2019-03-28T16:27:49.095Z,2.50
2019-03-28T16:30:22.342Z,2.70
2019-03-28T16:32:52.610Z,2.30
2019-03-28T16:35:22.881Z,1.93
2019-03-28T16:37:53.778Z,2.30
2019-03-28T16:40:24.303Z,2.10
2019-03-28T16:42:54.679Z,2.90
2019-03-28T16:45:24.904Z,2.53
2019-03-28T16:47:56.212Z,3.60
2019-03-28T16:50:26.592Z,3.40
2019-03-28T16:52:57.729Z,2.27
2019-03-28T16:55:28.292Z,2.17
2019-03-28T16:57:58.769Z,2.40
2019-03-28T17:00:38.697Z,2.30
2019-03-28T17:03:09.046Z,2.20
2019-03-28T17:05:39.865Z,2.10
2019-03-28T17:08:10.187Z,2.73
2019-03-28T17:10:50.660Z,2.17
2019-03-28T17:13:20.986Z,3.40
2019-03-28T17:15:51.397Z,2.33
2019-03-28T17:18:21.776Z,2.90
2019-03-28T17:20:52.075Z,2.50
2019-03-28T17:23:22.405Z,2.00
2019-03-28T17:25:52.834Z,2.63
2019-03-28T17:28:23.164Z,2.57
2019-03-28T17:30:53.457Z,2.37
2019-03-28T17:33:25.718Z,2.13
2019-03-28T17:35:55.991Z,2.70
2019-03-28T17:38:26.606Z,2.33
2019-03-28T17:40:56.851Z,2.07
2019-03-28T17:43:27.161Z,2.53
2019-03-28T17:45:58.430Z,2.67
2019-03-28T17:48:30.893Z,2.50
2019-03-28T17:51:01.322Z,2.80
2019-03-28T17:53:31.607Z,2.30
2019-03-28T17:56:01.821Z,2.17
2019-03-28T17:58:32.103Z,2.37
2019-03-28T18:01:02.365Z,2.17
2019-03-28T18:03:32.601Z,2.57
2019-03-28T18:06:02.859Z,2.23
2019-03-28T18:08:33.182Z,2.67
2019-03-28T18:11:04.299Z,2.70
2019-03-28T18:13:34.602Z,2.30
2019-03-28T18:16:04.905Z,2.60
2019-03-28T18:18:36.157Z,2.20
2019-03-28T18:21:06.535Z,3.00
2019-03-28T18:23:36.781Z,2.63
2019-03-28T18:26:07.039Z,2.37
2019-03-28T18:28:37.290Z,2.27
2019-03-28T18:31:07.640Z,2.77
2019-03-28T18:33:39.005Z,2.67
2019-03-28T18:36:09.243Z,2.20
2019-03-28T18:38:39.501Z,2.43
2019-03-28T18:41:09.716Z,2.40
2019-03-28T18:43:40.006Z,2.80
2019-03-28T18:46:10.323Z,2.57
2019-03-28T18:48:40.552Z,2.67
2019-03-28T18:51:10.838Z,2.13
2019-03-28T18:53:41.173Z,2.70
2019-03-28T18:56:11.493Z,2.20
2019-03-28T18:58:41.741Z,2.50
2019-03-28T19:01:12.030Z,2.60
2019-03-28T19:03:42.278Z,2.53
2019-03-28T19:06:14.910Z,2.00
2019-03-28T19:08:44.431Z,2.53
2019-03-28T19:11:14.755Z,2.70
2019-03-28T19:13:45.165Z,2.60
2019-03-28T19:16:16.001Z,2.50
2019-03-28T19:18:46.481Z,2.80
2019-03-28T19:21:16.688Z,2.70
2019-03-28T19:23:46.959Z,3.03
2019-03-28T19:26:17.356Z,2.55
2019-03-28T19:28:47.605Z,2.67
2019-03-28T19:31:17.946Z,2.83
2019-03-28T19:33:48.294Z,2.80
2019-03-28T19:36:19.014Z,2.73
2019-03-28T19:38:49.442Z,2.80
2019-03-28T19:41:19.668Z,2.50
2019-03-28T19:43:50.079Z,2.67
2019-03-28T19:46:20.488Z,2.70
2019-03-28T19:48:50.730Z,2.27
2019-03-28T19:51:20.963Z,2.43
2019-03-28T19:53:51.184Z,2.40
2019-03-28T19:56:21.449Z,2.47
2019-03-28T19:58:51.710Z,2.30
2019-03-28T20:01:22.021Z,2.57
2019-03-28T20:03:52.580Z,2.80
2019-03-28T20:06:24.278Z,2.70
2019-03-28T20:08:54.894Z,3.50
2019-03-28T20:11:26.347Z,2.50
2019-03-28T20:13:57.717Z,2.63
2019-03-28T20:16:28.044Z,2.70
2019-03-28T20:18:58.322Z,2.60
2019-03-28T20:21:28.547Z,2.73
2019-03-28T20:23:58.738Z,2.73
2019-03-28T20:26:29.753Z,2.60
2019-03-28T20:29:00.404Z,2.57
2019-03-28T20:31:30.716Z,2.70
2019-03-28T20:34:01.057Z,3.13
2019-03-28T20:36:38.527Z,3.10
2019-03-28T20:39:07.121Z,2.50
2019-03-28T20:41:37.494Z,2.47
2019-03-28T20:44:07.847Z,2.70
2019-03-28T20:46:40.661Z,3.10
2019-03-28T20:49:09.960Z,4.10
2019-03-28T20:51:40.207Z,2.90
2019-03-28T20:54:10.520Z,3.07
2019-03-28T20:56:40.732Z,2.60
2019-03-28T20:59:10.942Z,2.40
2019-03-28T21:01:42.700Z,2.23
2019-03-28T21:04:13.146Z,2.30
2019-03-28T21:06:44.289Z,3.27
2019-03-28T21:09:14.565Z,2.83
2019-03-28T21:11:44.916Z,2.67
2019-03-28T21:14:15.153Z,2.40
2019-03-28T21:16:45.380Z,2.53
2019-03-28T21:19:15.702Z,2.60
2019-03-28T21:21:45.960Z,3.03
2019-03-28T21:24:16.237Z,2.90
2019-03-28T21:26:46.446Z,2.43
2019-03-28T21:29:16.835Z,4.40
2019-03-28T21:31:50.203Z,2.60
2019-03-28T21:34:19.068Z,2.57
2019-03-28T21:36:49.313Z,2.40
2019-03-28T21:39:19.531Z,2.50
2019-03-28T21:41:49.774Z,2.83
2019-03-28T21:44:20.000Z,2.40
2019-03-28T21:46:50.249Z,2.70
2019-03-28T21:49:20.492Z,2.43
2019-03-28T21:51:50.796Z,2.80
2019-03-28T21:54:21.015Z,3.07
2019-03-28T21:56:51.265Z,2.73
2019-03-28T21:59:22.829Z,2.87
2019-03-28T22:01:53.254Z,3.03
2019-03-28T22:04:23.535Z,2.90
2019-03-28T22:06:53.798Z,3.20
2019-03-28T22:09:24.758Z,3.27
2019-03-28T22:11:55.325Z,2.80
2019-03-28T22:14:25.595Z,2.80
2019-03-28T22:16:55.900Z,3.30
2019-03-28T22:19:26.306Z,3.03
2019-03-28T22:21:56.599Z,3.00
2019-03-28T22:24:26.870Z,3.80
2019-03-28T22:26:57.164Z,3.37
2019-03-28T22:29:27.434Z,3.03
2019-03-28T22:31:57.686Z,3.23
2019-03-28T22:34:27.899Z,3.37
2019-03-28T22:36:59.994Z,3.40
2019-03-28T22:39:30.151Z,3.07
2019-03-28T22:42:00.628Z,3.07
2019-03-28T22:44:33.710Z,5.30
2019-03-28T22:47:02.850Z,3.53
2019-03-28T22:49:33.114Z,4.47
2019-03-28T22:52:04.184Z,3.87
2019-03-28T22:54:34.542Z,4.70
2019-03-28T22:57:05.733Z,3.30
2019-03-28T22:59:37.078Z,4.37
2019-03-28T23:02:07.673Z,3.23
2019-03-28T23:04:39.026Z,2.93
2019-03-28T23:07:11.166Z,3.40
2019-03-28T23:09:41.294Z,4.70
2019-03-28T23:12:11.562Z,6.37
2019-03-28T23:14:41.807Z,6.80
2019-03-28T23:17:12.083Z,3.60
2019-03-28T23:19:42.347Z,3.40
2019-03-28T23:22:12.649Z,3.33
2019-03-28T23:24:43.959Z,3.90
2019-03-28T23:27:14.364Z,3.33
2019-03-28T23:29:44.715Z,3.87
2019-03-28T23:32:15.197Z,3.50
2019-03-28T23:34:45.557Z,3.87
2019-03-28T23:37:24.730Z,3.70
2019-03-28T23:39:47.835Z,3.50
2019-03-28T23:42:18.236Z,3.60
2019-03-28T23:44:48.491Z,3.67
2019-03-28T23:47:18.741Z,4.95
2019-03-28T23:49:49.248Z,4.60
2019-03-28T23:52:19.490Z,5.60
2019-03-28T23:54:49.834Z,4.40
2019-03-28T23:57:20.068Z,4.10
2019-03-28T23:59:50.306Z,5.73
